Time;durP1;ratioP1;P1;durP2;ratioP2;P2;SDS_P1;SDS_P2;PMS_P1;PMS_P2;Temp;Humidity;BMP_temperature;BMP_pressure;BME280_temperature;BME280_humidity;BME280_pressure;Samples;Min_cycle;Max_cycle;Signal;HPM_P1;HPM_P2
2022/08/11 00:01:52;;;;;;;5.07;1.90;;;;;;;21.08;39.58;98510.72;5074575;28;20193;-69
2022/08/11 00:04:21;;;;;;;1.70;1.60;;;;;;;21.03;40.04;98508.00;5074057;28;20199;-69
2022/08/11 00:06:48;;;;;;;1.87;1.60;;;;;;;21.10;39.44;98505.81;5073573;28;20207;-69
2022/08/11 00:09:18;;;;;;;3.00;1.97;;;;;;;21.07;39.39;98508.28;5072717;28;20319;-68
2022/08/11 00:11:53;;;;;;;2.70;1.70;;;;;;;21.11;39.74;98507.44;5073881;28;20210;-69
2022/08/11 00:14:21;;;;;;;1.60;1.50;;;;;;;20.91;40.42;98501.28;5073503;28;20216;-69
2022/08/11 00:17:01;;;;;;;5.27;1.83;;;;;;;20.80;40.76;98508.56;5073415;28;20230;-69
2022/08/11 00:19:37;;;;;;;4.03;1.70;;;;;;;20.78;40.50;98499.94;5073757;28;20315;-69
2022/08/11 00:22:06;;;;;;;3.40;1.57;;;;;;;20.75;40.69;98499.69;5074219;28;20711;-69
2022/08/11 00:24:34;;;;;;;1.70;1.60;;;;;;;20.65;40.72;98505.06;5073601;28;20205;-69
2022/08/11 00:27:02;;;;;;;2.00;1.83;;;;;;;20.60;41.83;98508.59;5073642;28;20201;-69
2022/08/11 00:29:29;;;;;;;2.07;1.70;;;;;;;20.55;41.81;98507.78;5073470;28;20246;-69
2022/08/11 00:31:58;;;;;;;1.90;1.63;;;;;;;20.50;41.72;98502.41;5071246;28;20666;-69
2022/08/11 00:34:27;;;;;;;1.93;1.50;;;;;;;20.54;41.44;98514.28;5071331;28;20208;-69
2022/08/11 00:37:01;;;;;;;1.47;1.37;;;;;;;20.49;41.50;98508.88;5072484;28;20594;-69
2022/08/11 00:39:31;;;;;;;2.00;1.80;;;;;;;20.47;41.77;98508.31;5072714;28;20275;-69
2022/08/11 00:42:09;;;;;;;2.53;1.87;;;;;;;20.40;42.32;98519.44;5072770;28;20758;-69
2022/08/11 00:44:47;;;;;;;2.87;1.60;;;;;;;20.39;41.85;98522.41;5072018;28;20206;-69
2022/08/11 00:48:03;;;;;;;2.63;1.80;;;;;;;20.31;41.99;98514.81;5073243;28;20189;-69
2022/08/11 00:50:45;;;;;;;2.13;1.70;;;;;;;20.21;42.63;98512.13;5071692;28;20319;-69
2022/08/11 00:53:33;;;;;;;1.80;1.70;;;;;;;20.15;42.74;98510.50;5073205;28;20189;-69
2022/08/11 00:56:18;;;;;;;2.23;1.70;;;;;;;20.13;42.72;98507.25;5073173;28;20220;-69
2022/08/11 00:59:02;;;;;;;3.50;1.70;;;;;;;20.05;43.00;98516.69;5073167;28;20228;-69
2022/08/11 01:01:58;;;;;;;2.07;1.80;;;;;;;19.96;43.67;98512.06;5073259;28;20189;-69
2022/08/11 01:04:49;;;;;;;1.90;1.60;;;;;;;19.78;44.33;98521.47;5073216;28;20261;-69
2022/08/11 01:07:46;;;;;;;2.90;1.87;;;;;;;19.55;45.51;98511.97;5073276;28;20193;-69
2022/08/11 01:10:45;;;;;;;3.57;1.97;;;;;;;19.54;45.77;98509.56;5072973;28;20228;-69
2022/08/11 01:13:48;;;;;;;3.60;1.83;;;;;;;19.39;45.98;98520.25;5065284;28;20212;-69
2022/08/11 01:16:52;;;;;;;4.13;1.90;;;;;;;19.33;46.73;98513.25;5073241;28;20227;-69
2022/08/11 01:19:37;;;;;;;2.50;1.77;;;;;;;19.37;46.86;98509.75;5065128;28;20230;-69
2022/08/11 01:22:36;;;;;;;2.70;1.67;;;;;;;19.22;46.48;98515.06;5073136;28;20201;-69
2022/08/11 01:25:47;;;;;;;2.00;1.80;;;;;;;19.15;47.38;98519.06;5072147;28;20201;-69
2022/08/11 01:28:57;;;;;;;2.53;1.80;;;;;;;19.26;47.21;98510.78;5062601;28;20208;-69
2022/08/11 01:31:48;;;;;;;2.30;1.97;;;;;;;19.18;47.31;98510.47;5073123;28;20205;-69
2022/08/11 01:34:27;;;;;;;3.57;1.80;;;;;;;19.08;47.62;98515.78;5073106;28;20279;-69
2022/08/11 01:37:18;;;;;;;2.80;1.90;;;;;;;19.02;48.17;98506.88;5072941;28;20224;-69
2022/08/11 01:40:02;;;;;;;3.03;1.97;;;;;;;19.07;48.50;98508.78;5073064;28;20225;-69
2022/08/11 01:46:17;;;;;;;3.00;2.10;;;;;;;18.98;48.20;98499.56;5076764;28;20180;-69
2022/08/11 01:48:48;;;;;;;2.53;2.33;;;;;;;18.91;48.29;98499.78;5076974;28;20212;-69
2022/08/11 01:51:46;;;;;;;3.27;2.43;;;;;;;18.89;48.44;98496.56;5076649;28;20284;-69
2022/08/11 01:54:37;;;;;;;2.47;2.17;;;;;;;18.85;48.68;98495.47;5076573;28;20215;-69
2022/08/11 01:57:21;;;;;;;3.17;2.10;;;;;;;18.97;48.02;98497.94;5076448;28;20215;-69
2022/08/11 01:59:54;;;;;;;4.17;2.33;;;;;;;18.83;48.61;98496.78;5076388;28;20315;-69
2022/08/11 02:03:01;;;;;;;2.67;2.23;;;;;;;18.86;48.88;98497.06;5076441;28;20288;-69
2022/08/11 02:05:27;;;;;;;5.70;2.23;;;;;;;18.85;48.96;98492.75;5075210;28;20192;-69
2022/08/11 02:08:27;;;;;;;2.47;2.13;;;;;;;18.84;49.15;98488.44;5077133;28;20212;-69
2022/08/11 02:14:00;;;;;;;3.10;2.43;;;;;;;18.60;48.47;98510.66;5074812;28;20199;-69
2022/08/11 02:16:52;;;;;;;2.67;1.80;;;;;;;18.63;48.11;98502.84;5076153;28;20212;-69
2022/08/11 02:25:44;;;;;;;2.60;1.93;;;;;;;18.74;49.03;98482.19;5034021;28;20172;-69
2022/08/11 02:28:24;;;;;;;2.80;2.17;;;;;;;18.67;49.09;98478.91;5062000;28;20296;-69
2022/08/11 02:33:54;;;;;;;3.30;2.27;;;;;;;18.59;49.22;98490.97;5075656;28;20302;-69
2022/08/11 02:36:28;;;;;;;2.87;2.40;;;;;;;18.34;49.90;98490.81;5075809;28;20307;-69
2022/08/11 02:39:11;;;;;;;2.30;2.10;;;;;;;18.29;49.54;98484.53;5075485;28;20781;-69
2022/08/11 02:45:20;;;;;;;2.73;2.03;;;;;;;18.54;48.84;98482.88;5033390;28;20687;-69
2022/08/11 02:51:37;;;;;;;2.63;2.10;;;;;;;18.45;49.70;98487.13;5046203;28;20685;-69
2022/08/11 02:54:12;;;;;;;2.10;1.90;;;;;;;18.47;49.76;98492.25;5074597;28;20276;-69
2022/08/11 02:57:00;;;;;;;4.00;1.90;;;;;;;18.40;49.84;98486.25;5075271;28;20224;-69
2022/08/11 02:59:57;;;;;;;3.20;2.00;;;;;;;18.43;50.38;98485.75;5075257;28;20225;-69
2022/08/11 03:02:55;;;;;;;2.60;2.17;;;;;;;18.42;50.00;98486.81;5074728;28;20762;-68
2022/08/11 03:05:41;;;;;;;2.83;2.13;;;;;;;18.45;50.15;98484.41;5075538;28;20205;-69
2022/08/11 03:08:17;;;;;;;2.97;2.43;;;;;;;18.48;49.72;98491.16;5074729;28;20188;-69
2022/08/11 03:16:43;;;;;;;3.40;2.10;;;;;;;18.36;50.26;98491.34;5073593;28;20760;-69
2022/08/11 03:16:55;;;;;;;2.33;2.13;;;;;;;18.09;51.22;98489.78;5074667;28;20227;-69
2022/08/11 03:19:28;;;;;;;3.03;2.10;;;;;;;18.05;51.37;98494.03;5074852;28;20228;-69
2022/08/11 03:22:23;;;;;;;2.83;2.20;;;;;;;18.13;51.45;98490.84;5073817;28;20192;-68
2022/08/11 03:24:58;;;;;;;3.50;2.17;;;;;;;17.93;52.13;98491.50;5074858;28;20587;-69
2022/08/11 03:27:39;;;;;;;2.63;2.17;;;;;;;17.81;52.43;98493.53;5074682;28;20271;-68
2022/08/11 03:30:14;;;;;;;2.57;2.17;;;;;;;17.82;52.35;98508.59;5074458;28;20239;-69
2022/08/11 03:36:18;;;;;;;2.67;2.10;;;;;;;17.72;52.80;98505.00;5073175;28;20171;-69
2022/08/11 03:39:02;;;;;;;3.40;2.30;;;;;;;17.63;52.94;98515.41;5074099;28;20224;-69
2022/08/11 03:41:55;;;;;;;2.43;2.03;;;;;;;17.58;53.18;98515.34;5074418;28;20211;-69
2022/08/11 03:44:25;;;;;;;3.47;2.30;;;;;;;17.70;52.92;98516.03;5073104;28;20185;-69
2022/08/11 03:47:30;;;;;;;3.33;2.20;;;;;;;17.58;53.21;98509.97;5074027;28;20212;-69
2022/08/11 03:50:12;;;;;;;3.93;2.60;;;;;;;17.67;52.67;98518.38;5073782;28;20782;-69
2022/08/11 03:52:49;;;;;;;3.43;2.40;;;;;;;17.74;52.06;98506.34;5074116;28;20242;-69
2022/08/11 03:55:42;;;;;;;4.10;2.63;;;;;;;17.78;52.58;98512.84;5074112;28;20283;-69
2022/08/11 03:58:40;;;;;;;3.57;2.20;;;;;;;17.76;52.23;98512.31;5074022;28;20228;-69
2022/08/11 04:01:22;;;;;;;2.97;2.13;;;;;;;17.79;52.27;98511.81;5072411;28;20566;-69
2022/08/11 04:04:17;;;;;;;5.43;2.17;;;;;;;17.74;52.53;98509.03;5073862;28;20287;-69
2022/08/11 04:07:11;;;;;;;3.37;2.27;;;;;;;17.53;52.94;98512.59;5073909;28;20193;-69
2022/08/11 04:10:06;;;;;;;3.23;2.10;;;;;;;17.63;53.03;98499.25;5073877;28;20228;-69
2022/08/11 04:13:20;;;;;;;3.97;2.67;;;;;;;17.55;53.44;98505.09;5073824;28;20276;-69
2022/08/11 04:19:26;;;;;;;4.37;2.00;;;;;;;17.60;53.69;98509.72;5073230;28;20659;-69
2022/08/11 04:22:31;;;;;;;4.73;2.33;;;;;;;17.65;53.48;98513.25;5074007;28;20295;-69
2022/08/11 04:25:09;;;;;;;2.97;2.40;;;;;;;17.73;52.86;98510.13;5073286;28;20189;-69
2022/08/11 04:28:08;;;;;;;3.07;2.20;;;;;;;17.55;53.82;98498.91;5073566;28;20581;-69
2022/08/11 04:31:05;;;;;;;5.30;2.40;;;;;;;17.53;54.00;98509.09;5061155;28;20315;-69
2022/08/11 04:33:51;;;;;;;4.83;2.30;;;;;;;17.59;53.58;98511.59;5073543;28;20271;-69
2022/08/11 04:39:40;;;;;;;3.63;2.63;;;;;;;17.66;53.09;98506.00;5073061;28;20212;-69
2022/08/11 04:45:39;;;;;;;3.67;2.63;;;;;;;17.76;53.11;98511.50;5073264;28;20195;-69
2022/08/11 05:03:23;;;;;;;4.33;2.40;;;;;;;17.30;54.04;98520.09;5072851;28;20326;-69
2022/08/11 05:06:05;;;;;;;3.03;2.23;;;;;;;17.53;53.95;98531.41;5072981;28;20311;-69
2022/08/11 05:09:03;;;;;;;3.63;2.20;;;;;;;17.51;53.80;98524.69;5073041;28;20189;-69
2022/08/11 05:12:06;;;;;;;3.43;2.50;;;;;;;17.67;53.37;98527.28;5072897;28;20272;-69
2022/08/11 05:34:52;;;;;;;9.90;3.03;;;;;;;18.73;51.42;98519.06;5076382;28;20634;-69
2022/08/11 05:37:31;;;;;;;8.37;2.43;;;;;;;18.82;51.31;98517.53;5074952;28;20687;-69
2022/08/11 05:57:35;;;;;;;2.93;2.10;;;;;;;20.18;46.15;98529.69;5074643;28;20222;-69
2022/08/11 06:00:09;;;;;;;2.80;2.37;;;;;;;20.14;46.42;98534.00;5075518;28;20590;-69
2022/08/11 06:02:43;;;;;;;4.40;2.30;;;;;;;20.14;46.14;98528.59;5075915;28;20212;-69
2022/08/11 06:05:12;;;;;;;3.07;2.27;;;;;;;20.19;46.02;98533.16;5074781;28;20192;-69
2022/08/11 06:07:39;;;;;;;3.50;2.30;;;;;;;20.33;46.09;98532.38;5075911;28;20200;-69
2022/08/11 06:10:07;;;;;;;2.50;2.03;;;;;;;20.37;46.08;98524.53;5075694;28;20315;-69
2022/08/11 06:12:36;;;;;;;4.10;2.23;;;;;;;20.45;45.34;98521.31;5075870;28;20654;-69
2022/08/11 06:15:07;;;;;;;4.13;2.23;;;;;;;20.42;46.11;98524.53;5075624;28;20192;-69
2022/08/11 06:17:44;;;;;;;3.00;2.30;;;;;;;20.59;45.61;98517.78;5075469;28;20224;-69
2022/08/11 06:20:12;;;;;;;3.73;2.20;;;;;;;20.46;45.57;98521.03;5075447;28;20224;-69
2022/08/11 06:22:41;;;;;;;2.57;2.37;;;;;;;20.55;45.75;98535.63;5075650;28;20214;-69
2022/08/11 06:25:10;;;;;;;2.87;2.53;;;;;;;20.64;45.48;98523.19;5075370;28;20208;-69
2022/08/11 06:27:38;;;;;;;4.30;2.50;;;;;;;20.67;45.83;98525.31;5074564;28;20272;-70
2022/08/11 06:30:12;;;;;;;5.23;2.37;;;;;;;20.71;45.31;98522.91;5067451;28;20223;-68
2022/08/11 06:32:41;;;;;;;5.63;2.60;;;;;;;20.67;45.30;98524.53;5055564;28;20193;-68
2022/08/11 06:35:17;;;;;;;2.83;2.00;;;;;;;20.81;45.76;98528.28;5055250;28;20212;-68
2022/08/11 06:37:53;;;;;;;5.63;2.50;;;;;;;20.86;45.08;98533.69;5053943;28;20699;-68
2022/08/11 06:40:36;;;;;;;3.97;2.40;;;;;;;20.95;44.81;98523.97;5055015;28;20711;-68
2022/08/11 06:43:18;;;;;;;3.47;2.70;;;;;;;21.02;44.49;98532.63;5055221;28;20280;-68
2022/08/11 06:46:05;;;;;;;3.63;2.47;;;;;;;21.01;44.46;98533.69;5055400;28;20200;-69
2022/08/11 06:48:33;;;;;;;4.10;2.30;;;;;;;21.09;44.40;98533.13;5055169;28;20216;-69
2022/08/11 06:51:12;;;;;;;4.13;2.60;;;;;;;21.18;44.15;98531.47;5054859;28;20296;-69
2022/08/11 06:54:00;;;;;;;13.20;11.43;;;;;;;21.19;44.61;98525.81;5055055;28;20224;-69
2022/08/11 07:02:20;;;;;;;5.50;2.50;;;;;;;21.51;43.95;98526.22;5055043;28;20172;-67
2022/08/11 07:05:12;;;;;;;5.77;2.60;;;;;;;21.49;43.89;98527.59;5054895;28;20213;-68
2022/08/11 07:16:33;;;;;;;4.23;3.33;;;;;;;21.70;44.02;98529.94;5053456;28;20235;-68
2022/08/11 07:30:55;;;;;;;3.13;2.57;;;;;;;22.43;42.22;98518.06;5053233;28;20174;-68
2022/08/11 07:33:42;;;;;;;4.20;2.50;;;;;;;22.48;42.11;98515.34;5054587;28;20205;-68
2022/08/11 07:36:11;;;;;;;4.80;2.60;;;;;;;22.53;42.13;98511.78;5054505;28;20294;-68
2022/08/11 07:38:44;;;;;;;15.70;13.97;;;;;;;22.67;41.65;98508.16;5053929;28;20718;-69
2022/08/11 07:41:13;;;;;;;34.77;31.20;;;;;;;22.68;41.84;98508.94;5053984;28;20190;-69
2022/08/11 07:43:42;;;;;;;22.07;19.77;;;;;;;22.78;41.89;98515.06;5052992;28;20233;-69
2022/08/11 07:54:27;;;;;;;3.80;2.50;;;;;;;23.15;41.13;98500.88;5053778;28;20199;-68
2022/08/11 07:56:54;;;;;;;5.23;2.70;;;;;;;23.42;41.04;98510.03;5053845;28;20235;-69
2022/08/11 08:18:38;;;;;;;3.70;2.35;;;;;;;23.91;39.11;98501.53;5053699;28;20212;-69
2022/08/11 08:21:11;;;;;;;2.53;2.15;;;;;;;23.93;38.25;98500.13;5053636;28;20221;-69
2022/08/11 08:23:44;;;;;;;3.22;2.25;;;;;;;24.12;38.20;98502.88;5053593;28;20186;-69
2022/08/11 08:31:50;;;;;;;3.78;2.22;;;;;;;24.26;37.34;98506.44;5053221;28;20173;-69
2022/08/11 08:34:19;;;;;;;2.55;2.30;;;;;;;24.43;37.16;98498.56;5053054;28;20299;-69
2022/08/11 08:36:48;;;;;;;5.03;2.30;;;;;;;24.51;37.07;98504.13;5052767;28;20656;-69
2022/08/11 08:39:15;;;;;;;4.68;2.30;;;;;;;24.78;36.65;98506.94;5052945;28;20567;-70
2022/08/11 08:41:43;;;;;;;2.17;1.90;;;;;;;24.83;36.41;98503.34;5052980;28;20219;-69
2022/08/11 08:44:14;;;;;;;5.30;2.42;;;;;;;24.72;36.32;98501.88;5051717;28;20291;-69
2022/08/11 08:46:46;;;;;;;2.47;2.28;;;;;;;24.74;36.50;98502.41;5053332;28;20292;-69
2022/08/11 08:49:19;;;;;;;2.47;2.28;;;;;;;24.79;36.67;98496.88;5053340;28;20278;-69
2022/08/11 08:51:52;;;;;;;2.35;1.98;;;;;;;24.91;35.72;98503.44;5052195;28;20759;-69
2022/08/11 08:54:23;;;;;;;2.65;2.28;;;;;;;25.10;35.33;98487.03;5053431;28;20280;-70
2022/08/11 08:56:54;;;;;;;11.60;10.10;;;;;;;25.22;35.55;98490.88;5052753;28;20201;-70
2022/08/11 08:59:24;;;;;;;2.50;2.13;;;;;;;25.41;34.64;98485.31;5053009;28;20253;-69
2022/08/11 09:01:59;;;;;;;2.78;2.35;;;;;;;25.44;34.28;98499.16;5053298;28;20300;-70
2022/08/11 09:04:27;;;;;;;3.35;3.05;;;;;;;25.48;34.16;98488.44;5053036;28;20235;-70
2022/08/11 09:07:00;;;;;;;3.05;2.05;;;;;;;25.46;33.75;98486.03;5053223;28;20208;-70
2022/08/11 09:09:27;;;;;;;3.03;2.10;;;;;;;25.57;32.90;98492.06;5052956;28;20287;-70
2022/08/11 09:11:54;;;;;;;6.60;2.42;;;;;;;25.75;32.31;98486.50;5052776;28;20740;-69
2022/08/11 09:17:13;;;;;;;3.75;2.05;;;;;;;26.00;31.96;98485.13;5052300;28;20664;-69
2022/08/11 09:19:41;;;;;;;2.90;2.08;;;;;;;25.96;32.32;98490.41;5052911;28;20311;-69
2022/08/11 09:27:35;;;;;;;2.55;2.33;;;;;;;26.32;30.99;98495.81;5051969;28;20185;-69
2022/08/11 09:30:01;;;;;;;4.40;2.08;;;;;;;26.38;31.15;98497.31;5051523;28;20222;-69
2022/08/11 09:32:30;;;;;;;3.58;3.28;;;;;;;26.43;30.81;98487.09;5052811;28;20202;-69
2022/08/11 09:34:57;;;;;;;2.65;2.45;;;;;;;26.25;30.54;98492.72;5052831;28;20205;-70
2022/08/11 09:40:29;;;;;;;2.90;2.05;;;;;;;26.31;30.37;98497.75;5052534;28;20274;-70
2022/08/11 09:45:51;;;;;;;2.28;1.88;;;;;;;26.72;30.25;98481.16;5052642;28;20600;-70
2022/08/11 09:48:19;;;;;;;2.60;2.40;;;;;;;26.74;30.46;98496.09;5052445;28;20206;-70
2022/08/11 09:50:49;;;;;;;3.10;1.80;;;;;;;27.09;30.03;98486.97;5052452;28;20312;-70
2022/08/11 09:53:17;;;;;;;4.55;1.88;;;;;;;27.13;29.29;98492.59;5051095;28;20209;-70
2022/08/11 09:55:45;;;;;;;2.70;2.00;;;;;;;26.88;29.19;98493.31;5052287;28;20292;-70
2022/08/11 09:58:12;;;;;;;2.83;1.92;;;;;;;26.98;29.37;98484.84;5052156;28;20221;-70
2022/08/11 10:00:40;;;;;;;4.70;2.17;;;;;;;27.33;29.44;98478.44;5052189;28;20221;-70
2022/08/11 10:03:16;;;;;;;3.08;2.00;;;;;;;27.56;29.15;98481.84;5053642;28;20278;-70
2022/08/11 10:08:40;;;;;;;1.80;1.70;;;;;;;27.34;28.26;98480.03;5054758;28;20243;-69
2022/08/11 10:11:11;;;;;;;2.95;2.08;;;;;;;27.50;28.12;98483.94;5055923;28;20189;-70
2022/08/11 10:16:35;;;;;;;3.28;1.85;;;;;;;27.33;27.55;98483.06;5056036;28;20177;-70
2022/08/11 10:19:03;;;;;;;3.22;1.85;;;;;;;27.45;28.14;98475.88;5055788;28;20319;-71
2022/08/11 10:21:37;;;;;;;3.35;2.10;;;;;;;27.49;27.46;98479.59;5055482;28;20201;-71
2022/08/11 10:36:00;;;;;;;1.92;1.80;;;;;;;27.87;26.93;98471.66;5055668;28;20219;-70
2022/08/11 10:38:27;;;;;;;3.95;2.00;;;;;;;27.67;27.34;98464.84;5055394;28;20229;-70
2022/08/11 10:43:38;;;;;;;5.22;3.63;;;;;;;27.37;27.58;98459.47;5054620;28;20197;-70
2022/08/11 10:48:54;;;;;;;16.38;14.77;;;;;;;27.66;27.91;98449.56;5055379;28;20615;-70
2022/08/11 10:51:20;;;;;;;4.75;3.63;;;;;;;27.75;28.00;98444.13;5055237;28;20205;-70
2022/08/11 10:59:23;;;;;;;3.80;2.20;;;;;;;28.29;27.08;98444.28;5054788;28;20278;-70
2022/08/11 11:01:53;;;;;;;4.20;3.80;;;;;;;27.99;26.90;98449.94;5037355;28;20296;-70
2022/08/11 11:04:28;;;;;;;3.38;2.58;;;;;;;27.76;27.28;98446.53;5055122;28;20244;-70
2022/08/11 11:07:14;;;;;;;2.08;1.90;;;;;;;27.86;27.46;98431.78;5055126;28;20266;-70
2022/08/11 11:09:49;;;;;;;2.05;1.90;;;;;;;28.10;27.21;98429.34;5053676;28;20308;-70
2022/08/11 11:18:19;;;;;;;2.85;1.73;;;;;;;27.95;25.57;98427.94;5053485;28;20330;-71
2022/08/11 11:20:54;;;;;;;3.55;1.73;;;;;;;28.08;25.44;98423.41;5053496;28;20229;-71
2022/08/11 11:23:32;;;;;;;2.45;1.63;;;;;;;28.12;25.89;98419.69;5054691;28;20185;-70
2022/08/11 11:26:18;;;;;;;2.88;1.98;;;;;;;27.94;26.34;98415.38;5054594;28;20193;-70
2022/08/11 11:29:11;;;;;;;2.80;2.20;;;;;;;27.89;25.76;98417.50;5053105;28;20592;-70
2022/08/11 11:32:14;;;;;;;1.70;1.60;;;;;;;27.95;26.35;98405.25;5054277;28;20197;-70
2022/08/11 11:35:13;;;;;;;18.85;17.13;;;;;;;27.75;26.36;98411.34;5053921;28;20676;-69
2022/08/11 11:37:45;;;;;;;16.02;14.43;;;;;;;27.50;26.50;98399.28;5054326;28;20209;-70
2022/08/11 11:40:14;;;;;;;7.40;6.55;;;;;;;27.55;26.18;98401.03;5054327;28;20225;-70
2022/08/11 11:42:44;;;;;;;2.33;1.67;;;;;;;27.68;26.39;98392.69;5054755;28;20545;-70
2022/08/11 11:45:15;;;;;;;2.03;1.83;;;;;;;27.83;25.48;98392.25;5053243;28;20207;-70
2022/08/11 11:47:43;;;;;;;3.85;2.45;;;;;;;27.97;25.44;98400.25;5054268;28;20288;-70
2022/08/11 11:50:10;;;;;;;4.18;3.70;;;;;;;27.91;25.95;98390.63;5054091;28;20312;-71
2022/08/11 11:52:39;;;;;;;14.35;12.88;;;;;;;28.18;25.77;98393.00;5053824;28;20205;-71
2022/08/11 11:55:06;;;;;;;3.42;1.60;;;;;;;28.46;25.48;98392.34;5053788;28;20686;-70
2022/08/11 12:03:07;;;;;;;12.95;11.63;;;;;;;27.88;25.38;98385.78;5053619;28;20666;-70
2022/08/11 12:05:36;;;;;;;2.95;2.20;;;;;;;27.73;25.74;98375.34;5053986;28;20209;-70
2022/08/11 12:08:13;;;;;;;1.90;1.80;;;;;;;28.15;25.24;98374.50;5053847;28;20564;-71
2022/08/11 12:13:49;;;;;;;7.28;2.53;;;;;;;28.06;25.41;98379.19;5053392;28;20196;-70
2022/08/11 12:16:18;;;;;;;8.40;4.13;;;;;;;27.64;24.81;98371.78;5052579;28;20276;-70
2022/08/11 12:18:49;;;;;;;3.75;1.77;;;;;;;28.15;24.61;98378.06;5053527;28;20233;-71
2022/08/11 12:21:17;;;;;;;35.72;32.30;;;;;;;27.93;25.40;98374.69;5053560;28;20342;-70
2022/08/11 12:29:26;;;;;;;3.22;2.50;;;;;;;28.10;25.08;98359.09;5053122;28;20204;-70
2022/08/11 12:31:53;;;;;;;5.80;3.95;;;;;;;28.25;24.52;98360.50;5053104;28;20228;-70
2022/08/11 12:34:21;;;;;;;2.38;2.17;;;;;;;28.34;24.36;98361.28;5053386;28;20216;-71
2022/08/11 12:37:04;;;;;;;3.67;2.20;;;;;;;28.40;24.24;98360.78;5053151;28;20571;-70
2022/08/11 12:45:28;;;;;;;2.42;1.70;;;;;;;28.51;24.13;98342.91;5052171;28;20180;-70
2022/08/11 12:54:06;;;;;;;6.78;5.20;;;;;;;28.50;23.97;98332.28;5053267;28;20172;-71
2022/08/11 13:05:13;;;;;;;1.77;1.67;;;;;;;28.79;22.91;98321.34;5051920;28;20176;-71
2022/08/11 13:07:43;;;;;;;19.73;17.90;;;;;;;28.77;23.38;98323.63;5052600;28;20628;-70
2022/08/11 13:10:12;;;;;;;2.80;2.53;;;;;;;28.65;23.19;98310.66;5053365;28;20224;-70
2022/08/11 13:12:48;;;;;;;3.58;2.40;;;;;;;28.93;23.06;98316.47;5052854;28;20219;-70
2022/08/11 13:15:20;;;;;;;2.80;2.58;;;;;;;28.75;23.27;98317.69;5051760;28;20204;-70
2022/08/11 13:17:50;;;;;;;1.92;1.83;;;;;;;28.68;23.09;98312.75;5052528;28;20300;-70
2022/08/11 13:20:19;;;;;;;2.30;2.10;;;;;;;28.63;23.57;98309.38;5053072;28;20230;-70
2022/08/11 13:22:49;;;;;;;1.88;1.77;;;;;;;28.86;22.34;98313.44;5051531;28;20567;-70
2022/08/11 13:25:18;;;;;;;2.05;1.73;;;;;;;29.08;23.16;98313.97;5052721;28;20201;-70
2022/08/11 13:27:46;;;;;;;1.92;1.55;;;;;;;28.75;22.58;98313.00;5052681;28;20292;-70
2022/08/11 13:33:00;;;;;;;2.95;1.50;;;;;;;28.93;22.22;98300.06;5052843;28;20649;-70
2022/08/11 13:35:28;;;;;;;1.70;1.60;;;;;;;29.21;22.37;98296.47;5052851;28;20304;-70
2022/08/11 13:37:56;;;;;;;3.28;1.77;;;;;;;29.22;22.39;98298.09;5053785;28;20638;-70
2022/08/11 13:40:24;;;;;;;2.35;1.70;;;;;;;29.28;22.37;98290.47;5056576;28;20236;-70
2022/08/11 13:42:52;;;;;;;1.70;1.60;;;;;;;29.13;22.29;98297.38;5056150;28;20205;-69
2022/08/11 13:45:23;;;;;;;2.10;1.40;;;;;;;29.10;21.88;98291.72;5056499;28;20316;-70
2022/08/11 13:47:51;;;;;;;1.83;1.73;;;;;;;29.13;22.51;98299.28;5055878;28;20244;-70
2022/08/11 13:50:18;;;;;;;3.72;1.63;;;;;;;29.14;22.39;98289.94;5056426;28;20391;-70
2022/08/11 13:52:47;;;;;;;1.95;1.85;;;;;;;29.07;22.44;98287.72;5056006;28;20694;-70
2022/08/11 13:55:20;;;;;;;4.45;1.70;;;;;;;29.24;22.11;98282.13;5055677;28;20713;-70
2022/08/11 13:57:52;;;;;;;2.17;1.95;;;;;;;29.17;21.78;98287.31;5056012;28;20190;-70
2022/08/11 14:00:19;;;;;;;2.70;1.58;;;;;;;29.24;21.96;98287.59;5055927;28;20599;-70
2022/08/11 14:02:49;;;;;;;1.90;1.80;;;;;;;29.01;22.21;98280.03;5055735;28;20707;-70
2022/08/11 14:05:19;;;;;;;2.00;1.80;;;;;;;29.16;22.48;98282.97;5056072;28;20288;-71
2022/08/11 14:07:52;;;;;;;3.40;1.90;;;;;;;29.27;21.61;98272.44;5055738;28;20514;-70
2022/08/11 14:10:21;;;;;;;4.03;1.67;;;;;;;29.27;21.75;98273.25;5056096;28;20329;-70
2022/08/11 14:15:43;;;;;;;1.65;1.55;;;;;;;29.59;21.54;98274.44;5055056;28;20175;-70
2022/08/11 14:18:17;;;;;;;4.25;3.10;;;;;;;29.44;21.64;98255.88;5055566;28;20229;-70
2022/08/11 14:23:42;;;;;;;6.07;1.90;;;;;;;29.56;21.22;98261.41;5055795;28;20169;-70
2022/08/11 14:26:26;;;;;;;5.43;4.93;;;;;;;29.50;21.69;98262.72;5056456;28;20280;-70
2022/08/11 14:29:07;;;;;;;1.77;1.60;;;;;;;29.40;21.90;98255.75;5055322;28;20228;-70
2022/08/11 14:31:45;;;;;;;1.77;1.67;;;;;;;29.69;21.82;98263.06;5055632;28;20185;-70
2022/08/11 14:34:13;;;;;;;2.35;1.75;;;;;;;29.22;20.92;98256.22;5055721;28;20289;-70
2022/08/11 14:36:46;;;;;;;4.50;4.10;;;;;;;29.25;22.08;98253.59;5055254;28;20217;-70
2022/08/11 14:39:16;;;;;;;2.97;1.83;;;;;;;29.61;21.39;98258.47;5054903;28;20228;-71
2022/08/11 14:47:18;;;;;;;2.55;1.80;;;;;;;29.38;21.26;98249.78;5055079;28;20176;-70
2022/08/11 14:49:46;;;;;;;1.40;1.40;;;;;;;29.52;20.50;98242.06;5053831;28;20303;-71
2022/08/11 14:52:15;;;;;;;4.13;3.83;;;;;;;29.31;21.26;98238.59;5055825;28;20260;-71
2022/08/11 14:57:30;;;;;;;6.35;2.80;;;;;;;29.47;21.12;98239.53;5054822;28;20176;-70
2022/08/11 15:00:00;;;;;;;2.72;2.53;;;;;;;29.40;21.35;98233.00;5054471;28;20229;-70
2022/08/11 15:05:12;;;;;;;1.83;1.73;;;;;;;29.39;21.53;98218.50;5054875;28;20578;-70
2022/08/11 15:07:40;;;;;;;4.28;1.60;;;;;;;29.67;20.83;98216.78;5054630;28;20368;-71
2022/08/11 15:10:08;;;;;;;1.83;1.73;;;;;;;29.84;21.05;98215.84;5055036;28;20217;-71
2022/08/11 15:12:37;;;;;;;6.15;5.60;;;;;;;29.72;20.43;98218.53;5054560;28;20207;-71
2022/08/11 15:17:54;;;;;;;12.77;11.60;;;;;;;29.70;20.65;98218.88;5054806;28;20195;-70
2022/08/11 15:25:56;;;;;;;3.70;1.70;;;;;;;30.29;20.29;98203.66;5054365;28;20182;-70
2022/08/11 15:48:08;;;;;;;3.25;1.88;;;;;;;30.66;19.93;98191.50;5053986;28;20179;-73
2022/08/11 15:50:40;;;;;;;1.83;1.73;;;;;;;30.63;19.40;98194.97;5053519;28;20642;-69
2022/08/11 15:53:18;;;;;;;2.72;1.73;;;;;;;30.55;19.67;98187.66;5053462;28;20280;-70
2022/08/11 15:55:47;;;;;;;5.22;4.82;;;;;;;30.09;20.15;98182.63;5053927;28;20204;-70
2022/08/11 16:06:40;;;;;;;2.63;1.60;;;;;;;29.78;20.50;98171.38;5053697;28;20642;-69
2022/08/11 16:09:09;;;;;;;3.75;2.58;;;;;;;29.72;20.85;98180.97;5053518;28;20232;-70
2022/08/11 16:11:37;;;;;;;2.53;2.25;;;;;;;29.53;21.36;98177.91;5053831;28;20205;-70
2022/08/11 16:16:52;;;;;;;1.98;1.80;;;;;;;29.55;20.68;98180.31;5053254;28;20663;-69
2022/08/11 16:19:20;;;;;;;12.38;11.23;;;;;;;29.36;21.31;98172.63;5053354;28;20236;-69
2022/08/11 16:21:50;;;;;;;12.95;11.75;;;;;;;29.19;21.46;98172.78;5053259;28;20300;-69
2022/08/11 16:24:19;;;;;;;2.95;2.58;;;;;;;29.11;21.75;98165.44;5053546;28;20190;-70
2022/08/11 16:26:47;;;;;;;4.00;2.13;;;;;;;29.07;21.97;98170.00;5053274;28;20205;-70
2022/08/11 16:29:16;;;;;;;2.42;1.95;;;;;;;29.12;21.88;98174.47;5051916;28;20221;-69
2022/08/11 16:32:15;;;;;;;1.80;1.70;;;;;;;29.05;21.86;98161.31;5051928;28;20277;-69
2022/08/11 16:40:04;;;;;;;2.65;1.92;;;;;;;28.97;21.83;98158.63;5052970;28;20768;-70
2022/08/11 16:48:08;;;;;;;3.70;1.90;;;;;;;28.91;21.95;98159.97;5028709;28;20213;-70
2022/08/11 16:50:37;;;;;;;2.45;1.52;;;;;;;28.75;22.12;98159.75;5053123;28;20232;-69
2022/08/11 16:53:05;;;;;;;3.50;1.67;;;;;;;28.67;21.95;98170.78;5053192;28;20237;-70
2022/08/11 16:55:37;;;;;;;2.25;1.70;;;;;;;28.46;22.19;98164.47;5052950;28;20292;-69
2022/08/11 17:00:53;;;;;;;2.38;1.60;;;;;;;28.39;22.58;98161.47;5035540;28;20202;-69
2022/08/11 17:14:43;;;;;;;2.03;1.70;;;;;;;28.41;22.61;98154.56;5056392;28;20200;-69
2022/08/11 17:17:20;;;;;;;3.92;2.00;;;;;;;28.44;22.85;98158.56;5057171;28;20197;-69
2022/08/11 17:19:51;;;;;;;2.78;1.70;;;;;;;28.35;22.53;98166.75;5057013;28;20312;-69
2022/08/11 17:25:05;;;;;;;3.25;1.77;;;;;;;28.17;22.90;98156.28;5056924;28;20172;-70
2022/08/11 17:27:34;;;;;;;2.55;1.83;;;;;;;28.10;22.78;98154.06;5056735;28;20333;-69
2022/08/11 17:30:04;;;;;;;2.33;1.58;;;;;;;28.00;23.46;98151.69;5055381;28;20236;-70
2022/08/11 17:35:29;;;;;;;3.50;1.90;;;;;;;27.77;23.35;98147.59;5055537;28;20176;-70
2022/08/11 17:37:58;;;;;;;4.90;2.08;;;;;;;27.78;23.16;98151.09;5056147;28;20189;-70